sensor_id;sensor_type;location;lat;lon;timestamp;pressure;altitude;pressure_sealevel;temperature;humidity
16738;BME280;17906;47.684;10.806;2022-12-26T00:02:25;93423.59;;;-1.41;100.00
16738;BME280;17906;47.684;10.806;2022-12-26T00:04:51;93434.59;;;-1.52;100.00
16738;BME280;17906;47.684;10.806;2022-12-26T00:07:19;93435.22;;;-1.42;100.00
16738;BME280;17906;47.684;10.806;2022-12-26T00:09:46;93438.66;;;-1.33;100.00
16738;BME280;17906;47.684;10.806;2022-12-26T00:12:13;93441.00;;;-1.30;100.00
16738;BME280;17906;47.684;10.806;2022-12-26T00:14:40;93442.47;;;-1.28;100.00
16738;BME280;17906;47.684;10.806;2022-12-26T00:17:06;93443.97;;;-1.25;100.00
16738;BME280;17906;47.684;10.806;2022-12-26T00:19:33;93439.34;;;-1.31;100.00
16738;BME280;17906;47.684;10.806;2022-12-26T00:22:00;93456.50;;;-1.42;100.00
16738;BME280;17906;47.684;10.806;2022-12-26T00:24:28;93440.69;;;-1.44;100.00
16738;BME280;17906;47.684;10.806;2022-12-26T00:26:54;93447.19;;;-1.46;100.00
16738;BME280;17906;47.684;10.806;2022-12-26T00:29:21;93451.31;;;-1.44;100.00
16738;BME280;17906;47.684;10.806;2022-12-26T00:31:48;93439.91;;;-1.52;100.00
16738;BME280;17906;47.684;10.806;2022-12-26T00:34:15;93443.22;;;-1.42;100.00
16738;BME280;17906;47.684;10.806;2022-12-26T00:36:41;93443.50;;;-1.37;100.00
16738;BME280;17906;47.684;10.806;2022-12-26T00:39:08;93444.00;;;-1.33;100.00
16738;BME280;17906;47.684;10.806;2022-12-26T00:41:37;93438.53;;;-1.40;100.00
16738;BME280;17906;47.684;10.806;2022-12-26T00:44:03;93439.19;;;-1.38;100.00
16738;BME280;17906;47.684;10.806;2022-12-26T00:46:30;93439.66;;;-1.26;100.00
16738;BME280;17906;47.684;10.806;2022-12-26T00:48:57;93436.63;;;-1.15;100.00
16738;BME280;17906;47.684;10.806;2022-12-26T00:51:24;93443.94;;;-1.17;100.00
16738;BME280;17906;47.684;10.806;2022-12-26T00:53:50;93440.75;;;-1.13;100.00
16738;BME280;17906;47.684;10.806;2022-12-26T00:56:17;93452.38;;;-1.05;100.00
16738;BME280;17906;47.684;10.806;2022-12-26T00:58:45;93442.34;;;-0.95;100.00
16738;BME280;17906;47.684;10.806;2022-12-26T01:01:13;93438.16;;;-0.90;100.00
16738;BME280;17906;47.684;10.806;2022-12-26T01:03:41;93444.28;;;-0.89;100.00
16738;BME280;17906;47.684;10.806;2022-12-26T01:06:10;93443.97;;;-0.86;100.00
16738;BME280;17906;47.684;10.806;2022-12-26T01:08:37;93447.09;;;-0.82;100.00
16738;BME280;17906;47.684;10.806;2022-12-26T01:11:05;93454.91;;;-0.81;100.00
16738;BME280;17906;47.684;10.806;2022-12-26T01:13:32;93446.59;;;-0.78;100.00
16738;BME280;17906;47.684;10.806;2022-12-26T01:16:01;93459.19;;;-0.72;100.00
16738;BME280;17906;47.684;10.806;2022-12-26T01:18:32;93456.47;;;-0.64;100.00
16738;BME280;17906;47.684;10.806;2022-12-26T01:21:00;93463.00;;;-0.66;100.00
16738;BME280;17906;47.684;10.806;2022-12-26T01:23:27;93464.06;;;-0.52;100.00
16738;BME280;17906;47.684;10.806;2022-12-26T01:25:54;93470.41;;;-0.53;100.00
16738;BME280;17906;47.684;10.806;2022-12-26T01:28:20;93462.06;;;-0.50;100.00
16738;BME280;17906;47.684;10.806;2022-12-26T01:30:47;93468.44;;;-0.37;100.00
16738;BME280;17906;47.684;10.806;2022-12-26T01:33:15;93471.44;;;-0.32;100.00
16738;BME280;17906;47.684;10.806;2022-12-26T01:35:50;93466.28;;;-0.33;100.00
16738;BME280;17906;47.684;10.806;2022-12-26T01:38:18;93465.19;;;-0.24;100.00
16738;BME280;17906;47.684;10.806;2022-12-26T01:40:45;93468.53;;;-0.22;100.00
16738;BME280;17906;47.684;10.806;2022-12-26T01:43:13;93463.81;;;-0.12;100.00
16738;BME280;17906;47.684;10.806;2022-12-26T01:45:41;93470.41;;;-0.08;100.00
16738;BME280;17906;47.684;10.806;2022-12-26T01:48:17;93462.00;;;-0.19;100.00
16738;BME280;17906;47.684;10.806;2022-12-26T01:50:49;93470.88;;;-0.27;100.00
16738;BME280;17906;47.684;10.806;2022-12-26T01:53:20;93467.22;;;-0.26;100.00
16738;BME280;17906;47.684;10.806;2022-12-26T01:55:51;93468.69;;;-0.46;100.00
16738;BME280;17906;47.684;10.806;2022-12-26T01:58:21;93476.06;;;-0.57;100.00
16738;BME280;17906;47.684;10.806;2022-12-26T02:00:50;93477.66;;;-0.47;100.00
16738;BME280;17906;47.684;10.806;2022-12-26T02:03:19;93489.88;;;-0.53;100.00
16738;BME280;17906;47.684;10.806;2022-12-26T02:06:04;93476.50;;;-0.45;100.00
16738;BME280;17906;47.684;10.806;2022-12-26T02:08:33;93474.50;;;-0.43;100.00
16738;BME280;17906;47.684;10.806;2022-12-26T02:11:05;93466.38;;;-0.27;100.00
16738;BME280;17906;47.684;10.806;2022-12-26T02:13:35;93479.88;;;-0.05;100.00
16738;BME280;17906;47.684;10.806;2022-12-26T02:16:03;93468.72;;;-0.01;100.00
16738;BME280;17906;47.684;10.806;2022-12-26T02:18:32;93478.94;;;0.11;100.00
16738;BME280;17906;47.684;10.806;2022-12-26T02:21:11;93479.03;;;0.17;100.00
16738;BME280;17906;47.684;10.806;2022-12-26T02:24:08;93481.66;;;0.02;100.00
16738;BME280;17906;47.684;10.806;2022-12-26T02:30:02;93469.88;;;0.20;100.00
16738;BME280;17906;47.684;10.806;2022-12-26T02:33:00;93474.53;;;0.18;100.00
16738;BME280;17906;47.684;10.806;2022-12-26T02:35:38;93461.75;;;0.13;100.00
16738;BME280;17906;47.684;10.806;2022-12-26T02:38:18;93458.97;;;0.07;100.00
16738;BME280;17906;47.684;10.806;2022-12-26T02:40:52;93470.34;;;0.00;100.00
16738;BME280;17906;47.684;10.806;2022-12-26T02:43:28;93461.78;;;-0.10;100.00
16738;BME280;17906;47.684;10.806;2022-12-26T02:46:04;93462.25;;;-0.06;100.00
16738;BME280;17906;47.684;10.806;2022-12-26T02:48:57;93467.28;;;-0.11;100.00
16738;BME280;17906;47.684;10.806;2022-12-26T02:51:37;93459.13;;;-0.10;100.00
16738;BME280;17906;47.684;10.806;2022-12-26T02:54:27;93462.47;;;-0.16;100.00
16738;BME280;17906;47.684;10.806;2022-12-26T02:57:18;93468.53;;;-0.22;100.00
16738;BME280;17906;47.684;10.806;2022-12-26T03:00:05;93462.59;;;-0.32;100.00
16738;BME280;17906;47.684;10.806;2022-12-26T03:02:52;93465.78;;;-0.37;100.00
16738;BME280;17906;47.684;10.806;2022-12-26T03:05:41;93474.13;;;-0.40;100.00
16738;BME280;17906;47.684;10.806;2022-12-26T03:08:30;93456.03;;;-0.44;100.00
16738;BME280;17906;47.684;10.806;2022-12-26T03:11:16;93464.13;;;-0.38;100.00
16738;BME280;17906;47.684;10.806;2022-12-26T03:14:06;93470.81;;;-0.42;100.00
16738;BME280;17906;47.684;10.806;2022-12-26T03:16:37;93463.34;;;-0.46;100.00
16738;BME280;17906;47.684;10.806;2022-12-26T03:19:23;93466.31;;;-0.41;100.00
16738;BME280;17906;47.684;10.806;2022-12-26T03:21:54;93458.22;;;-0.25;100.00
16738;BME280;17906;47.684;10.806;2022-12-26T03:24:22;93458.81;;;-0.15;100.00
16738;BME280;17906;47.684;10.806;2022-12-26T03:26:50;93454.22;;;-0.21;100.00
16738;BME280;17906;47.684;10.806;2022-12-26T03:29:18;93462.97;;;-0.12;100.00
16738;BME280;17906;47.684;10.806;2022-12-26T03:32:05;93466.50;;;-0.20;100.00
16738;BME280;17906;47.684;10.806;2022-12-26T03:34:33;93473.69;;;-0.20;100.00
16738;BME280;17906;47.684;10.806;2022-12-26T03:37:26;93468.44;;;-0.37;100.00
16738;BME280;17906;47.684;10.806;2022-12-26T03:40:05;93467.38;;;-0.28;100.00
16738;BME280;17906;47.684;10.806;2022-12-26T03:42:58;93462.44;;;-0.31;100.00
16738;BME280;17906;47.684;10.806;2022-12-26T03:45:50;93460.22;;;-0.27;100.00
16738;BME280;17906;47.684;10.806;2022-12-26T03:48:44;93466.31;;;-0.41;100.00
16738;BME280;17906;47.684;10.806;2022-12-26T03:51:37;93457.91;;;-0.53;100.00
16738;BME280;17906;47.684;10.806;2022-12-26T03:54:28;93457.81;;;-0.68;100.00
16738;BME280;17906;47.684;10.806;2022-12-26T03:57:33;93450.56;;;-0.74;100.00
16738;BME280;17906;47.684;10.806;2022-12-26T04:00:19;93454.72;;;-0.79;100.00
16738;BME280;17906;47.684;10.806;2022-12-26T04:03:06;93451.59;;;-0.83;100.00
16738;BME280;17906;47.684;10.806;2022-12-26T04:05:52;93455.78;;;-0.89;100.00
16738;BME280;17906;47.684;10.806;2022-12-26T04:08:43;93453.66;;;-1.01;100.00
16738;BME280;17906;47.684;10.806;2022-12-26T04:11:31;93446.69;;;-1.02;100.00
16738;BME280;17906;47.684;10.806;2022-12-26T04:14:23;93452.53;;;-1.07;100.00
16738;BME280;17906;47.684;10.806;2022-12-26T04:17:17;93435.88;;;-1.01;100.00
16738;BME280;17906;47.684;10.806;2022-12-26T04:20:14;93438.41;;;-1.07;100.00
16738;BME280;17906;47.684;10.806;2022-12-26T04:22:44;93440.91;;;-1.06;100.00
16738;BME280;17906;47.684;10.806;2022-12-26T04:25:35;93445.06;;;-1.11;100.00
16738;BME280;17906;47.684;10.806;2022-12-26T04:28:24;93458.03;;;-1.08;100.00
16738;BME280;17906;47.684;10.806;2022-12-26T04:31:12;93461.34;;;-1.06;100.00
16738;BME280;17906;47.684;10.806;2022-12-26T04:34:00;93465.31;;;-1.02;100.00
16738;BME280;17906;47.684;10.806;2022-12-26T04:36:50;93468.81;;;-1.02;100.00
16738;BME280;17906;47.684;10.806;2022-12-26T04:39:37;93464.31;;;-1.01;100.00
16738;BME280;17906;47.684;10.806;2022-12-26T04:42:24;93474.13;;;-1.02;100.00
16738;BME280;17906;47.684;10.806;2022-12-26T04:45:12;93472.47;;;-1.03;100.00
16738;BME280;17906;47.684;10.806;2022-12-26T04:47:39;93481.06;;;-0.93;100.00
16738;BME280;17906;47.684;10.806;2022-12-26T04:50:27;93483.50;;;-1.22;100.00
16738;BME280;17906;47.684;10.806;2022-12-26T04:52:52;93481.03;;;-1.24;100.00
16738;BME280;17906;47.684;10.806;2022-12-26T04:55:25;93501.63;;;-1.26;100.00
16738;BME280;17906;47.684;10.806;2022-12-26T04:57:52;93486.03;;;-1.29;100.00
16738;BME280;17906;47.684;10.806;2022-12-26T05:00:20;93497.16;;;-1.33;100.00
16738;BME280;17906;47.684;10.806;2022-12-26T05:02:49;93500.16;;;-1.28;100.00
16738;BME280;17906;47.684;10.806;2022-12-26T05:05:37;93498.16;;;-1.34;100.00
16738;BME280;17906;47.684;10.806;2022-12-26T05:08:24;93500.53;;;-1.56;100.00
16738;BME280;17906;47.684;10.806;2022-12-26T05:11:10;93498.88;;;-1.49;100.00
16738;BME280;17906;47.684;10.806;2022-12-26T05:13:36;93510.69;;;-1.51;100.00
16738;BME280;17906;47.684;10.806;2022-12-26T05:16:06;93517.78;;;-1.44;100.00
16738;BME280;17906;47.684;10.806;2022-12-26T05:18:50;93518.66;;;-1.43;100.00
16738;BME280;17906;47.684;10.806;2022-12-26T05:21:35;93522.50;;;-1.62;100.00
16738;BME280;17906;47.684;10.806;2022-12-26T05:24:19;93530.13;;;-1.67;100.00
16738;BME280;17906;47.684;10.806;2022-12-26T05:27:04;93533.13;;;-1.62;100.00
16738;BME280;17906;47.684;10.806;2022-12-26T05:29:49;93533.63;;;-1.75;100.00
16738;BME280;17906;47.684;10.806;2022-12-26T05:32:17;93543.56;;;-1.77;100.00
16738;BME280;17906;47.684;10.806;2022-12-26T05:35:01;93542.91;;;-1.70;100.00
16738;BME280;17906;47.684;10.806;2022-12-26T05:37:27;93549.56;;;-1.75;100.00
16738;BME280;17906;47.684;10.806;2022-12-26T05:39:54;93553.56;;;-1.70;100.00
16738;BME280;17906;47.684;10.806;2022-12-26T05:42:20;93553.56;;;-1.70;100.00
16738;BME280;17906;47.684;10.806;2022-12-26T05:44:47;93554.91;;;-1.75;100.00
16738;BME280;17906;47.684;10.806;2022-12-26T05:47:14;93559.53;;;-1.77;100.00
16738;BME280;17906;47.684;10.806;2022-12-26T05:49:42;93558.69;;;-1.77;100.00
16738;BME280;17906;47.684;10.806;2022-12-26T05:52:09;93550.88;;;-1.79;100.00
16738;BME280;17906;47.684;10.806;2022-12-26T05:54:35;93551.56;;;-1.85;100.00
16738;BME280;17906;47.684;10.806;2022-12-26T05:57:02;93560.03;;;-1.81;100.00
16738;BME280;17906;47.684;10.806;2022-12-26T05:59:29;93550.88;;;-1.87;100.00
16738;BME280;17906;47.684;10.806;2022-12-26T06:01:55;93542.59;;;-1.76;100.00
16738;BME280;17906;47.684;10.806;2022-12-26T06:04:22;93561.69;;;-1.72;100.00
16738;BME280;17906;47.684;10.806;2022-12-26T06:06:50;93550.38;;;-1.66;100.00
16738;BME280;17906;47.684;10.806;2022-12-26T06:09:20;93553.03;;;-1.66;100.00
16738;BME280;17906;47.684;10.806;2022-12-26T06:11:47;93560.03;;;-1.65;100.00
16738;BME280;17906;47.684;10.806;2022-12-26T06:14:14;93556.03;;;-1.61;100.00
16738;BME280;17906;47.684;10.806;2022-12-26T06:16:41;93554.88;;;-1.50;100.00
16738;BME280;17906;47.684;10.806;2022-12-26T06:19:08;93557.00;;;-1.37;100.00
16738;BME280;17906;47.684;10.806;2022-12-26T06:21:35;93554.34;;;-1.37;100.00
16738;BME280;17906;47.684;10.806;2022-12-26T06:24:03;93549.88;;;-1.37;100.00
16738;BME280;17906;47.684;10.806;2022-12-26T06:26:30;93557.19;;;-1.39;100.00
16738;BME280;17906;47.684;10.806;2022-12-26T06:28:56;93554.19;;;-1.36;100.00
16738;BME280;17906;47.684;10.806;2022-12-26T06:31:23;93544.53;;;-1.37;100.00
16738;BME280;17906;47.684;10.806;2022-12-26T06:33:53;93558.50;;;-1.35;100.00
16738;BME280;17906;47.684;10.806;2022-12-26T06:36:24;93573.63;;;-1.27;100.00
16738;BME280;17906;47.684;10.806;2022-12-26T06:38:52;93565.47;;;-1.34;100.00
16738;BME280;17906;47.684;10.806;2022-12-26T06:41:24;93556.19;;;-1.30;100.00
16738;BME280;17906;47.684;10.806;2022-12-26T06:43:51;93552.34;;;-1.19;100.00
16738;BME280;17906;47.684;10.806;2022-12-26T06:46:19;93552.28;;;-1.03;100.00
16738;BME280;17906;47.684;10.806;2022-12-26T06:48:46;93548.88;;;-0.80;100.00
16738;BME280;17906;47.684;10.806;2022-12-26T06:51:15;93532.41;;;-0.76;100.00
16738;BME280;17906;47.684;10.806;2022-12-26T06:53:42;93527.91;;;-0.75;100.00
16738;BME280;17906;47.684;10.806;2022-12-26T06:56:10;93526.75;;;-0.81;100.00
16738;BME280;17906;47.684;10.806;2022-12-26T06:58:39;93520.13;;;-0.85;100.00
16738;BME280;17906;47.684;10.806;2022-12-26T07:01:08;93506.72;;;-1.00;100.00
16738;BME280;17906;47.684;10.806;2022-12-26T07:03:35;93505.84;;;-0.92;100.00
16738;BME280;17906;47.684;10.806;2022-12-26T07:06:03;93512.81;;;-0.83;100.00
16738;BME280;17906;47.684;10.806;2022-12-26T07:08:30;93500.03;;;-0.88;100.00
16738;BME280;17906;47.684;10.806;2022-12-26T07:10:57;93503.50;;;-0.87;100.00
16738;BME280;17906;47.684;10.806;2022-12-26T07:13:23;93497.16;;;-0.78;100.00
16738;BME280;17906;47.684;10.806;2022-12-26T07:15:53;93498.13;;;-0.79;100.00
16738;BME280;17906;47.684;10.806;2022-12-26T07:18:20;93500.75;;;-0.71;100.00
16738;BME280;17906;47.684;10.806;2022-12-26T07:20:46;93489.47;;;-0.73;100.00
16738;BME280;17906;47.684;10.806;2022-12-26T07:23:13;93490.28;;;-0.72;100.00
16738;BME280;17906;47.684;10.806;2022-12-26T07:25:39;93490.84;;;-0.77;100.00
16738;BME280;17906;47.684;10.806;2022-12-26T07:28:06;93498.47;;;-0.74;100.00
16738;BME280;17906;47.684;10.806;2022-12-26T07:30:32;93497.09;;;-0.70;100.00
16738;BME280;17906;47.684;10.806;2022-12-26T07:33:00;93499.19;;;-0.57;100.00
16738;BME280;17906;47.684;10.806;2022-12-26T07:35:27;93490.03;;;-0.54;100.00
16738;BME280;17906;47.684;10.806;2022-12-26T07:37:54;93478.16;;;-0.44;100.00
16738;BME280;17906;47.684;10.806;2022-12-26T07:40:20;93486.22;;;-0.29;100.00
16738;BME280;17906;47.684;10.806;2022-12-26T07:42:47;93491.97;;;-0.17;100.00
16738;BME280;17906;47.684;10.806;2022-12-26T07:45:14;93487.38;;;-0.01;100.00
16738;BME280;17906;47.684;10.806;2022-12-26T07:47:40;93492.50;;;0.01;100.00
16738;BME280;17906;47.684;10.806;2022-12-26T07:50:09;93491.44;;;0.10;100.00
16738;BME280;17906;47.684;10.806;2022-12-26T07:52:36;93487.78;;;0.26;100.00
16738;BME280;17906;47.684;10.806;2022-12-26T07:55:03;93504.38;;;0.36;100.00
16738;BME280;17906;47.684;10.806;2022-12-26T07:57:29;93497.91;;;0.53;100.00
16738;BME280;17906;47.684;10.806;2022-12-26T07:59:56;93502.03;;;0.71;100.00
16738;BME280;17906;47.684;10.806;2022-12-26T08:02:23;93507.56;;;0.84;100.00
16738;BME280;17906;47.684;10.806;2022-12-26T08:04:50;93502.97;;;0.93;100.00
16738;BME280;17906;47.684;10.806;2022-12-26T08:07:18;93498.31;;;1.09;100.00
16738;BME280;17906;47.684;10.806;2022-12-26T08:09:44;93494.88;;;1.30;99.95
16738;BME280;17906;47.684;10.806;2022-12-26T08:12:11;93495.97;;;1.51;98.06
16738;BME280;17906;47.684;10.806;2022-12-26T08:14:38;93494.53;;;1.69;95.42
16738;BME280;17906;47.684;10.806;2022-12-26T08:17:05;93495.25;;;1.78;96.95
16738;BME280;17906;47.684;10.806;2022-12-26T08:19:32;93480.03;;;1.78;96.87
16738;BME280;17906;47.684;10.806;2022-12-26T08:22:01;93482.50;;;1.80;97.37
16738;BME280;17906;47.684;10.806;2022-12-26T08:24:31;93484.75;;;1.76;97.54
16738;BME280;17906;47.684;10.806;2022-12-26T08:26:58;93489.78;;;1.86;96.50
16738;BME280;17906;47.684;10.806;2022-12-26T08:29:25;93479.63;;;1.82;97.17
16738;BME280;17906;47.684;10.806;2022-12-26T08:31:51;93492.47;;;1.86;96.87
16738;BME280;17906;47.684;10.806;2022-12-26T08:34:18;93489.59;;;1.88;97.30
16738;BME280;17906;47.684;10.806;2022-12-26T08:36:49;93496.66;;;1.95;97.29
16738;BME280;17906;47.684;10.806;2022-12-26T08:39:16;93496.53;;;2.03;96.91
16738;BME280;17906;47.684;10.806;2022-12-26T08:41:47;93501.00;;;2.18;96.88
16738;BME280;17906;47.684;10.806;2022-12-26T08:44:13;93498.81;;;2.49;96.16
16738;BME280;17906;47.684;10.806;2022-12-26T08:46:42;93502.97;;;2.52;95.37
16738;BME280;17906;47.684;10.806;2022-12-26T08:49:09;93509.09;;;2.74;93.08
16738;BME280;17906;47.684;10.806;2022-12-26T08:51:35;93504.81;;;3.07;91.46
16738;BME280;17906;47.684;10.806;2022-12-26T08:54:03;93501.69;;;3.38;89.97
16738;BME280;17906;47.684;10.806;2022-12-26T08:56:30;93497.56;;;3.77;86.67
16738;BME280;17906;47.684;10.806;2022-12-26T08:58:58;93491.72;;;4.28;85.12
16738;BME280;17906;47.684;10.806;2022-12-26T09:01:26;93478.97;;;4.43;84.52
16738;BME280;17906;47.684;10.806;2022-12-26T09:03:55;93490.31;;;4.52;83.88
16738;BME280;17906;47.684;10.806;2022-12-26T09:06:23;93483.50;;;4.82;81.00
16738;BME280;17906;47.684;10.806;2022-12-26T09:08:50;93477.28;;;5.02;81.60
16738;BME280;17906;47.684;10.806;2022-12-26T09:11:19;93471.41;;;5.38;77.61
16738;BME280;17906;47.684;10.806;2022-12-26T09:13:46;93465.94;;;5.71;77.78
16738;BME280;17906;47.684;10.806;2022-12-26T09:16:17;93458.44;;;6.24;76.04
16738;BME280;17906;47.684;10.806;2022-12-26T09:18:45;93467.88;;;6.72;75.25
16738;BME280;17906;47.684;10.806;2022-12-26T09:21:13;93455.03;;;7.35;72.60
16738;BME280;17906;47.684;10.806;2022-12-26T09:23:40;93447.06;;;8.02;70.37
16738;BME280;17906;47.684;10.806;2022-12-26T09:26:11;93452.38;;;8.38;70.21
16738;BME280;17906;47.684;10.806;2022-12-26T09:28:40;93453.69;;;9.24;66.76
16738;BME280;17906;47.684;10.806;2022-12-26T09:31:09;93444.41;;;9.32;66.08
16738;BME280;17906;47.684;10.806;2022-12-26T09:33:39;93443.63;;;9.95;65.11
16738;BME280;17906;47.684;10.806;2022-12-26T09:36:08;93448.19;;;10.46;63.14
16738;BME280;17906;47.684;10.806;2022-12-26T09:38:35;93450.44;;;10.66;63.02
16738;BME280;17906;47.684;10.806;2022-12-26T09:41:13;93458.16;;;11.03;60.67
16738;BME280;17906;47.684;10.806;2022-12-26T09:43:49;93465.25;;;11.21;61.48
16738;BME280;17906;47.684;10.806;2022-12-26T09:46:26;93462.53;;;10.75;63.59
16738;BME280;17906;47.684;10.806;2022-12-26T09:49:02;93452.28;;;10.21;66.13
16738;BME280;17906;47.684;10.806;2022-12-26T09:51:30;93452.97;;;10.28;65.27
16738;BME280;17906;47.684;10.806;2022-12-26T09:54:00;93451.28;;;10.38;66.20
16738;BME280;17906;47.684;10.806;2022-12-26T09:56:32;93451.03;;;10.68;65.48
16738;BME280;17906;47.684;10.806;2022-12-26T09:59:01;93460.41;;;11.06;62.73
16738;BME280;17906;47.684;10.806;2022-12-26T10:01:33;93441.63;;;11.04;64.10
16738;BME280;17906;47.684;10.806;2022-12-26T10:04:18;93449.78;;;11.04;60.43
16738;BME280;17906;47.684;10.806;2022-12-26T10:06:48;93440.06;;;11.25;62.83
16738;BME280;17906;47.684;10.806;2022-12-26T10:09:28;93447.06;;;11.04;63.50
16738;BME280;17906;47.684;10.806;2022-12-26T10:12:12;93445.75;;;11.07;59.89
16738;BME280;17906;47.684;10.806;2022-12-26T10:14:48;93439.91;;;10.98;63.51
16738;BME280;17906;47.684;10.806;2022-12-26T10:17:25;93439.84;;;10.82;64.73
16738;BME280;17906;47.684;10.806;2022-12-26T10:20:11;93441.16;;;10.62;65.58
16738;BME280;17906;47.684;10.806;2022-12-26T10:23:17;93434.31;;;10.43;68.22
16738;BME280;17906;47.684;10.806;2022-12-26T10:25:50;93431.06;;;10.29;64.36
16738;BME280;17906;47.684;10.806;2022-12-26T10:28:27;93426.19;;;10.03;64.79
16738;BME280;17906;47.684;10.806;2022-12-26T10:30:57;93422.19;;;9.65;67.74
16738;BME280;17906;47.684;10.806;2022-12-26T10:33:32;93423.81;;;9.31;68.41
16738;BME280;17906;47.684;10.806;2022-12-26T10:36:07;93418.06;;;9.04;68.46
16738;BME280;17906;47.684;10.806;2022-12-26T10:38:38;93433.53;;;8.73;70.51
16738;BME280;17906;47.684;10.806;2022-12-26T10:41:10;93429.41;;;8.59;70.69
16738;BME280;17906;47.684;10.806;2022-12-26T10:43:39;93426.91;;;8.46;70.96
16738;BME280;17906;47.684;10.806;2022-12-26T10:46:29;93430.56;;;8.52;71.72
16738;BME280;17906;47.684;10.806;2022-12-26T10:48:58;93428.91;;;8.51;72.50
16738;BME280;17906;47.684;10.806;2022-12-26T10:51:27;93427.34;;;8.43;74.81
16738;BME280;17906;47.684;10.806;2022-12-26T10:53:54;93432.16;;;8.41;72.59
16738;BME280;17906;47.684;10.806;2022-12-26T10:56:22;93434.41;;;8.44;72.67
16738;BME280;17906;47.684;10.806;2022-12-26T10:58:58;93420.31;;;8.42;73.26
16738;BME280;17906;47.684;10.806;2022-12-26T11:01:32;93422.09;;;8.48;73.70
16738;BME280;17906;47.684;10.806;2022-12-26T11:04:01;93417.53;;;8.60;68.57
16738;BME280;17906;47.684;10.806;2022-12-26T11:06:33;93416.75;;;8.71;69.67
16738;BME280;17906;47.684;10.806;2022-12-26T11:09:03;93416.84;;;8.77;74.44
16738;BME280;17906;47.684;10.806;2022-12-26T11:11:32;93425.81;;;8.77;75.70
16738;BME280;17906;47.684;10.806;2022-12-26T11:14:28;93416.25;;;8.74;72.58
16738;BME280;17906;47.684;10.806;2022-12-26T11:16:58;93415.69;;;8.72;71.71
16738;BME280;17906;47.684;10.806;2022-12-26T11:19:26;93411.44;;;8.77;74.09
16738;BME280;17906;47.684;10.806;2022-12-26T11:22:13;93420.75;;;8.81;75.65
16738;BME280;17906;47.684;10.806;2022-12-26T11:24:48;93424.63;;;8.85;78.08
16738;BME280;17906;47.684;10.806;2022-12-26T11:27:27;93421.69;;;8.86;79.13
16738;BME280;17906;47.684;10.806;2022-12-26T11:30:09;93432.63;;;8.80;75.46
16738;BME280;17906;47.684;10.806;2022-12-26T11:32:41;93420.28;;;8.84;76.21
16738;BME280;17906;47.684;10.806;2022-12-26T11:35:15;93421.66;;;8.74;73.47
16738;BME280;17906;47.684;10.806;2022-12-26T11:37:45;93424.13;;;8.76;78.76
16738;BME280;17906;47.684;10.806;2022-12-26T11:40:18;93434.97;;;8.88;77.68
16738;BME280;17906;47.684;10.806;2022-12-26T11:42:48;93434.75;;;8.89;75.97
16738;BME280;17906;47.684;10.806;2022-12-26T11:45:21;93434.97;;;8.88;76.63
16738;BME280;17906;47.684;10.806;2022-12-26T11:47:48;93431.66;;;8.74;73.62
16738;BME280;17906;47.684;10.806;2022-12-26T11:50:25;93424.97;;;8.77;75.06
16738;BME280;17906;47.684;10.806;2022-12-26T11:53:04;93427.56;;;8.83;74.33
16738;BME280;17906;47.684;10.806;2022-12-26T11:55:32;93434.28;;;8.92;72.48
16738;BME280;17906;47.684;10.806;2022-12-26T11:58:00;93445.66;;;8.83;71.53
16738;BME280;17906;47.684;10.806;2022-12-26T12:00:31;93437.66;;;8.88;69.35
16738;BME280;17906;47.684;10.806;2022-12-26T12:02:58;93443.22;;;8.93;67.69
16738;BME280;17906;47.684;10.806;2022-12-26T12:05:33;93443.69;;;8.90;69.82
16738;BME280;17906;47.684;10.806;2022-12-26T12:08:25;93440.94;;;8.66;70.04
16738;BME280;17906;47.684;10.806;2022-12-26T12:11:15;93465.47;;;8.65;70.60
16738;BME280;17906;47.684;10.806;2022-12-26T12:14:10;93474.47;;;8.47;71.08
16738;BME280;17906;47.684;10.806;2022-12-26T12:16:46;93486.50;;;8.33;71.04
16738;BME280;17906;47.684;10.806;2022-12-26T12:19:26;93503.41;;;8.28;72.99
16738;BME280;17906;47.684;10.806;2022-12-26T12:22:08;93506.75;;;8.12;73.66
16738;BME280;17906;47.684;10.806;2022-12-26T12:24:52;93507.84;;;7.86;75.64
16738;BME280;17906;47.684;10.806;2022-12-26T12:27:28;93508.53;;;7.81;76.17
16738;BME280;17906;47.684;10.806;2022-12-26T12:30:09;93504.22;;;7.55;78.15
16738;BME280;17906;47.684;10.806;2022-12-26T12:33:00;93503.16;;;7.38;80.33
16738;BME280;17906;47.684;10.806;2022-12-26T12:35:40;93520.28;;;7.25;82.19
16738;BME280;17906;47.684;10.806;2022-12-26T12:38:23;93511.06;;;7.15;83.28
16738;BME280;17906;47.684;10.806;2022-12-26T12:40:59;93530.66;;;7.04;83.99
16738;BME280;17906;47.684;10.806;2022-12-26T12:43:32;93531.50;;;6.97;84.91
16738;BME280;17906;47.684;10.806;2022-12-26T12:46:09;93506.25;;;6.92;85.36
16738;BME280;17906;47.684;10.806;2022-12-26T12:48:57;93526.03;;;6.79;86.67
16738;BME280;17906;47.684;10.806;2022-12-26T12:51:32;93532.09;;;6.75;86.99
16738;BME280;17906;47.684;10.806;2022-12-26T12:54:27;93522.16;;;6.68;88.41
16738;BME280;17906;47.684;10.806;2022-12-26T12:57:04;93520.53;;;6.67;87.84
16738;BME280;17906;47.684;10.806;2022-12-26T12:59:42;93522.84;;;6.64;88.62
16738;BME280;17906;47.684;10.806;2022-12-26T13:02:17;93532.38;;;6.60;89.27
16738;BME280;17906;47.684;10.806;2022-12-26T13:04:48;93536.34;;;6.57;90.16
16738;BME280;17906;47.684;10.806;2022-12-26T13:07:20;93556.22;;;6.56;90.75
16738;BME280;17906;47.684;10.806;2022-12-26T13:09:51;93556.69;;;6.53;91.42
16738;BME280;17906;47.684;10.806;2022-12-26T13:12:22;93555.50;;;6.43;92.38
16738;BME280;17906;47.684;10.806;2022-12-26T13:14:51;93554.44;;;6.44;92.63
16738;BME280;17906;47.684;10.806;2022-12-26T13:17:24;93561.47;;;6.45;92.91
16738;BME280;17906;47.684;10.806;2022-12-26T13:19:58;93561.31;;;6.39;93.84
16738;BME280;17906;47.684;10.806;2022-12-26T13:22:29;93563.41;;;6.31;95.40
16738;BME280;17906;47.684;10.806;2022-12-26T13:25:18;93569.63;;;6.31;95.32